SWA1738 KMCO-KEYW
Flight info
| Callsign | SWA1738 |
|---|---|
| Flight time | 0h 42m |
| Altitude | 36000 |
| Route | FSHUN4 PLUMR RSW/N0447F350 KARTR KRAKN1 |
| Aircraft | B737/M-SDE2E3FGHIRWXY/LB1 |
Departure
| Time | 2026-04-22 14:29 |
|---|---|
| Airport | Orlando International Airport (KMCO) |
Arrival
| Time | 2026-04-22 15:11 |
|---|---|
| Airport | Key West International Airport (KEYW) |
| Time | Latitude | Longitude | Altitude | Speed | Heading |
|---|---|---|---|---|---|
| 2026-04-22 13:58 | 28.43596 | -81.30049 | 99 ft | 0 kts | 257° |
| 2026-04-22 14:15 | 28.43596 | -81.30046 | 99 ft | 2 kts | 258° |
| 2026-04-22 14:15 | 28.43599 | -81.30027 | 98 ft | 3 kts | 251° |
| 2026-04-22 14:16 | 28.43606 | -81.30005 | 99 ft | 3 kts | 247° |
| 2026-04-22 14:16 | 28.43614 | -81.29984 | 98 ft | 3 kts | 245° |
| 2026-04-22 14:16 | 28.43623 | -81.29963 | 98 ft | 3 kts | 244° |
| 2026-04-22 14:16 | 28.43632 | -81.29943 | 98 ft | 3 kts | 241° |
| 2026-04-22 14:17 | 28.43642 | -81.29923 | 99 ft | 3 kts | 236° |
| 2026-04-22 14:17 | 28.43654 | -81.29905 | 100 ft | 3 kts | 224° |
| 2026-04-22 14:17 | 28.43669 | -81.29892 | 99 ft | 3 kts | 192° |
| 2026-04-22 14:17 | 28.43679 | -81.29891 | 100 ft | 1 kts | 176° |
| 2026-04-22 14:18 | 28.43681 | -81.29891 | 98 ft | 1 kts | 176° |
| 2026-04-22 14:20 | 28.43680 | -81.29891 | 101 ft | 0 kts | 176° |
| 2026-04-22 14:20 | 28.43662 | -81.29890 | 100 ft | 5 kts | 177° |
| 2026-04-22 14:20 | 28.43618 | -81.29887 | 100 ft | 9 kts | 178° |
| 2026-04-22 14:21 | 28.43483 | -81.29805 | 103 ft | 13 kts | 182° |
| 2026-04-22 14:21 | 28.43371 | -81.29806 | 102 ft | 19 kts | 179° |
| 2026-04-22 14:22 | 28.43044 | -81.29801 | 102 ft | 24 kts | 180° |
| 2026-04-22 14:22 | 28.42881 | -81.29799 | 102 ft | 23 kts | 179° |
| 2026-04-22 14:22 | 28.42574 | -81.29791 | 102 ft | 21 kts | 178° |
| 2026-04-22 14:23 | 28.42429 | -81.29792 | 101 ft | 20 kts | 181° |
| 2026-04-22 14:23 | 28.42289 | -81.29794 | 101 ft | 20 kts | 177° |
| 2026-04-22 14:23 | 28.42154 | -81.29790 | 100 ft | 19 kts | 180° |
| 2026-04-22 14:23 | 28.42026 | -81.29791 | 100 ft | 18 kts | 180° |
| 2026-04-22 14:24 | 28.41901 | -81.29788 | 101 ft | 18 kts | 178° |
| 2026-04-22 14:24 | 28.41782 | -81.29792 | 101 ft | 17 kts | 182° |
| 2026-04-22 14:24 | 28.41668 | -81.29795 | 101 ft | 16 kts | 176° |
| 2026-04-22 14:24 | 28.41560 | -81.29787 | 101 ft | 15 kts | 176° |
| 2026-04-22 14:25 | 28.41456 | -81.29781 | 101 ft | 15 kts | 178° |
| 2026-04-22 14:25 | 28.41358 | -81.29777 | 100 ft | 14 kts | 178° |
| 2026-04-22 14:25 | 28.41265 | -81.29777 | 100 ft | 13 kts | 180° |
| 2026-04-22 14:25 | 28.41175 | -81.29780 | 100 ft | 13 kts | 182° |
| 2026-04-22 14:26 | 28.41088 | -81.29783 | 100 ft | 12 kts | 182° |
| 2026-04-22 14:26 | 28.41003 | -81.29786 | 100 ft | 12 kts | 182° |
| 2026-04-22 14:26 | 28.40920 | -81.29786 | 99 ft | 12 kts | 174° |
| 2026-04-22 14:26 | 28.40837 | -81.29765 | 99 ft | 13 kts | 145° |
| 2026-04-22 14:27 | 28.40820 | -81.29657 | 99 ft | 17 kts | 88° |
| 2026-04-22 14:27 | 28.40872 | -81.29555 | 96 ft | 21 kts | 353° |
| 2026-04-22 14:27 | 28.40904 | -81.29558 | 97 ft | 0 kts | 359° |
| 2026-04-22 14:28 | 28.40905 | -81.29558 | 97 ft | 1 kts | 359° |
| 2026-04-22 14:28 | 28.41130 | -81.29561 | 99 ft | 75 kts | 359° |
| 2026-04-22 14:28 | 28.41928 | -81.29570 | 109 ft | 151 kts | 1° |
| 2026-04-22 14:28 | 28.43100 | -81.29583 | 584 ft | 182 kts | 2° |
| 2026-04-22 14:29 | 28.44439 | -81.29590 | 1375 ft | 198 kts | 2° |
| 2026-04-22 14:29 | 28.45881 | -81.29633 | 2179 ft | 216 kts | 1° |
| 2026-04-22 14:29 | 28.47429 | -81.29786 | 2961 ft | 233 kts | 353° |
| 2026-04-22 14:29 | 28.50779 | -81.30640 | 4921 ft | 252 kts | 351° |
| 2026-04-22 14:30 | 28.52461 | -81.31182 | 6134 ft | 253 kts | 343° |
| 2026-04-22 14:30 | 28.54126 | -81.31911 | 6741 ft | 259 kts | 341° |
| 2026-04-22 14:30 | 28.55767 | -81.32784 | 6986 ft | 262 kts | 334° |
| 2026-04-22 14:30 | 28.58261 | -81.34392 | 6977 ft | 265 kts | 325° |
| 2026-04-22 14:31 | 28.59411 | -81.36023 | 6995 ft | 269 kts | 293° |
| 2026-04-22 14:31 | 28.59803 | -81.38162 | 7010 ft | 286 kts | 271° |
| 2026-04-22 14:31 | 28.59681 | -81.44877 | 7033 ft | 302 kts | 268° |
| 2026-04-22 14:31 | 28.59288 | -81.47190 | 6977 ft | 296 kts | 243° |
| 2026-04-22 14:32 | 28.58108 | -81.48989 | 7004 ft | 284 kts | 218° |
| 2026-04-22 14:32 | 28.56457 | -81.50140 | 7168 ft | 278 kts | 194° |
| 2026-04-22 14:32 | 28.51912 | -81.51105 | 9442 ft | 283 kts | 187° |
| 2026-04-22 14:32 | 28.49067 | -81.51616 | 10872 ft | 292 kts | 188° |
| 2026-04-22 14:33 | 28.46965 | -81.51989 | 11162 ft | 322 kts | 189° |
| 2026-04-22 14:33 | 28.41050 | -81.53065 | 13211 ft | 341 kts | 191° |
| 2026-04-22 14:33 | 28.34823 | -81.54206 | 15492 ft | 354 kts | 188° |
| 2026-04-22 14:33 | 28.30485 | -81.54069 | 16818 ft | 366 kts | 178° |
| 2026-04-22 14:34 | 28.20118 | -81.52981 | 19816 ft | 384 kts | 178° |
| 2026-04-22 14:34 | 28.09095 | -81.51972 | 22210 ft | 409 kts | 180° |
| 2026-04-22 14:34 | 27.97530 | -81.50951 | 24290 ft | 433 kts | 180° |
| 2026-04-22 14:34 | 27.93360 | -81.50796 | 25012 ft | 428 kts | 194° |
| 2026-04-22 14:35 | 27.90545 | -81.51715 | 25623 ft | 416 kts | 211° |
| 2026-04-22 14:35 | 27.87772 | -81.53704 | 26475 ft | 403 kts | 222° |
| 2026-04-22 14:35 | 27.84881 | -81.56217 | 27563 ft | 396 kts | 224° |
| 2026-04-22 14:35 | 27.82717 | -81.58137 | 28058 ft | 397 kts | 224° |
| 2026-04-22 14:36 | 27.80532 | -81.60058 | 28261 ft | 396 kts | 223° |
| 2026-04-22 14:36 | 27.70085 | -81.68747 | 28260 ft | 398 kts | 211° |
| 2026-04-22 14:36 | 27.67413 | -81.69679 | 28281 ft | 411 kts | 194° |
| 2026-04-22 14:37 | 27.60029 | -81.70287 | 28310 ft | 417 kts | 189° |
| 2026-04-22 14:37 | 27.36707 | -81.71753 | 28275 ft | 421 kts | 190° |
| 2026-04-22 14:38 | 27.13309 | -81.73405 | 28263 ft | 421 kts | 190° |
| 2026-04-22 14:38 | 26.93699 | -81.74773 | 28271 ft | 421 kts | 190° |
| 2026-04-22 14:39 | 26.87853 | -81.75180 | 28264 ft | 420 kts | 190° |
| 2026-04-22 14:39 | 26.82410 | -81.75559 | 28265 ft | 419 kts | 190° |
| 2026-04-22 14:40 | 26.73721 | -81.76163 | 28257 ft | 419 kts | 190° |
| 2026-04-22 14:40 | 26.67905 | -81.76567 | 28256 ft | 418 kts | 190° |
| 2026-04-22 14:41 | 26.62102 | -81.76969 | 28245 ft | 418 kts | 190° |
| 2026-04-22 14:41 | 26.56295 | -81.77372 | 28263 ft | 418 kts | 190° |
| 2026-04-22 14:42 | 26.50434 | -81.77069 | 28261 ft | 430 kts | 174° |
| 2026-04-22 14:42 | 26.44588 | -81.75564 | 28262 ft | 432 kts | 172° |
| 2026-04-22 14:43 | 26.38746 | -81.73989 | 28261 ft | 432 kts | 173° |
| 2026-04-22 14:43 | 26.32885 | -81.72451 | 28237 ft | 432 kts | 173° |
| 2026-04-22 14:44 | 26.27022 | -81.70944 | 28233 ft | 432 kts | 173° |
| 2026-04-22 14:44 | 26.21201 | -81.69457 | 28244 ft | 432 kts | 173° |
| 2026-04-22 14:45 | 26.15344 | -81.67964 | 28237 ft | 432 kts | 173° |
| 2026-04-22 14:45 | 26.09477 | -81.66468 | 28240 ft | 432 kts | 173° |
| 2026-04-22 14:46 | 26.03617 | -81.64975 | 28167 ft | 431 kts | 173° |
| 2026-04-22 14:46 | 26.00700 | -81.64231 | 27865 ft | 427 kts | 174° |
| 2026-04-22 14:46 | 25.97824 | -81.63496 | 27618 ft | 422 kts | 174° |
| 2026-04-22 14:47 | 25.94970 | -81.62770 | 27371 ft | 420 kts | 174° |
| 2026-04-22 14:47 | 25.92121 | -81.62046 | 27126 ft | 420 kts | 174° |
| 2026-04-22 14:47 | 25.89274 | -81.61325 | 26881 ft | 420 kts | 173° |
| 2026-04-22 14:47 | 25.86427 | -81.60603 | 26637 ft | 419 kts | 173° |
| 2026-04-22 14:48 | 25.83576 | -81.59881 | 26392 ft | 419 kts | 173° |
| 2026-04-22 14:48 | 25.80737 | -81.59160 | 26148 ft | 418 kts | 173° |
| 2026-04-22 14:48 | 25.77897 | -81.58440 | 25875 ft | 417 kts | 173° |
| 2026-04-22 14:48 | 25.75076 | -81.57725 | 25381 ft | 415 kts | 173° |
| 2026-04-22 14:49 | 25.72274 | -81.57014 | 24888 ft | 411 kts | 173° |
| 2026-04-22 14:49 | 25.69535 | -81.56320 | 24383 ft | 408 kts | 173° |
| 2026-04-22 14:49 | 25.66773 | -81.55621 | 23872 ft | 407 kts | 173° |
| 2026-04-22 14:49 | 25.64014 | -81.54924 | 23265 ft | 405 kts | 172° |
| 2026-04-22 14:50 | 25.61273 | -81.54231 | 22723 ft | 402 kts | 172° |
| 2026-04-22 14:50 | 25.58562 | -81.53545 | 22199 ft | 398 kts | 172° |
| 2026-04-22 14:50 | 25.55866 | -81.52864 | 21679 ft | 395 kts | 172° |
| 2026-04-22 14:50 | 25.53201 | -81.52191 | 21182 ft | 391 kts | 171° |
| 2026-04-22 14:51 | 25.50544 | -81.51672 | 20645 ft | 384 kts | 183° |
| 2026-04-22 14:51 | 25.47938 | -81.52015 | 20062 ft | 373 kts | 201° |
| 2026-04-22 14:51 | 25.45541 | -81.53042 | 19540 ft | 369 kts | 206° |
| 2026-04-22 14:51 | 25.43184 | -81.54164 | 19002 ft | 367 kts | 207° |
| 2026-04-22 14:52 | 25.40849 | -81.55287 | 18478 ft | 365 kts | 206° |
| 2026-04-22 14:52 | 25.38522 | -81.56394 | 17895 ft | 363 kts | 206° |
| 2026-04-22 14:52 | 25.36212 | -81.57479 | 17344 ft | 360 kts | 205° |
| 2026-04-22 14:52 | 25.33902 | -81.58556 | 16718 ft | 360 kts | 206° |
| 2026-04-22 14:53 | 25.31600 | -81.59622 | 16174 ft | 357 kts | 206° |
| 2026-04-22 14:53 | 25.29338 | -81.60665 | 15672 ft | 354 kts | 205° |
| 2026-04-22 14:53 | 25.27076 | -81.61710 | 15167 ft | 351 kts | 206° |
| 2026-04-22 14:53 | 25.24832 | -81.62745 | 14647 ft | 349 kts | 204° |
| 2026-04-22 14:54 | 25.22598 | -81.63778 | 14161 ft | 346 kts | 205° |
| 2026-04-22 14:54 | 25.20374 | -81.64804 | 13606 ft | 344 kts | 206° |
| 2026-04-22 14:54 | 25.18175 | -81.65817 | 13088 ft | 341 kts | 207° |
| 2026-04-22 14:54 | 25.15994 | -81.66824 | 12577 ft | 338 kts | 205° |
| 2026-04-22 14:55 | 25.14560 | -81.67486 | 12261 ft | 336 kts | 206° |
| 2026-04-22 14:55 | 25.12386 | -81.68484 | 11768 ft | 333 kts | 206° |
| 2026-04-22 14:55 | 25.10282 | -81.69456 | 11294 ft | 331 kts | 205° |
| 2026-04-22 14:55 | 25.08162 | -81.70434 | 10815 ft | 328 kts | 204° |
| 2026-04-22 14:56 | 25.06057 | -81.71404 | 10379 ft | 325 kts | 204° |
| 2026-04-22 14:56 | 25.04013 | -81.72344 | 10217 ft | 313 kts | 204° |
| 2026-04-22 14:56 | 25.02035 | -81.73253 | 10061 ft | 301 kts | 204° |
| 2026-04-22 14:56 | 25.00141 | -81.74122 | 9988 ft | 287 kts | 204° |
| 2026-04-22 14:57 | 24.98315 | -81.74961 | 9995 ft | 281 kts | 204° |
| 2026-04-22 14:57 | 24.96531 | -81.75782 | 9979 ft | 271 kts | 204° |
| 2026-04-22 14:57 | 24.94855 | -81.76551 | 9971 ft | 257 kts | 204° |
| 2026-04-22 14:57 | 24.93253 | -81.77286 | 9967 ft | 242 kts | 204° |
| 2026-04-22 14:58 | 24.91740 | -81.77980 | 9971 ft | 223 kts | 204° |
| 2026-04-22 14:58 | 24.90363 | -81.78612 | 9782 ft | 213 kts | 204° |
| 2026-04-22 14:58 | 24.89010 | -81.79234 | 9357 ft | 211 kts | 205° |
| 2026-04-22 14:58 | 24.87677 | -81.79905 | 8909 ft | 209 kts | 213° |
| 2026-04-22 14:59 | 24.86455 | -81.80746 | 8521 ft | 205 kts | 216° |
| 2026-04-22 14:59 | 24.85260 | -81.81610 | 8101 ft | 205 kts | 216° |
| 2026-04-22 14:59 | 24.84076 | -81.82467 | 7711 ft | 202 kts | 217° |
| 2026-04-22 14:59 | 24.82905 | -81.83310 | 7309 ft | 200 kts | 217° |
| 2026-04-22 15:00 | 24.81756 | -81.84133 | 7034 ft | 194 kts | 218° |
| 2026-04-22 15:00 | 24.80629 | -81.84938 | 6825 ft | 193 kts | 216° |
| 2026-04-22 15:00 | 24.79491 | -81.85751 | 6659 ft | 196 kts | 216° |
| 2026-04-22 15:00 | 24.78342 | -81.86569 | 6463 ft | 197 kts | 216° |
| 2026-04-22 15:01 | 24.77193 | -81.87386 | 6242 ft | 196 kts | 214° |
| 2026-04-22 15:01 | 24.76052 | -81.88197 | 6049 ft | 197 kts | 214° |
| 2026-04-22 15:01 | 24.74906 | -81.89009 | 5865 ft | 199 kts | 213° |
| 2026-04-22 15:01 | 24.73719 | -81.89851 | 5664 ft | 201 kts | 212° |
| 2026-04-22 15:02 | 24.72570 | -81.90664 | 5368 ft | 200 kts | 211° |
| 2026-04-22 15:02 | 24.71396 | -81.91494 | 4977 ft | 203 kts | 208° |
| 2026-04-22 15:02 | 24.70210 | -81.92332 | 4609 ft | 203 kts | 210° |
| 2026-04-22 15:02 | 24.69019 | -81.93174 | 4223 ft | 204 kts | 207° |
| 2026-04-22 15:03 | 24.67833 | -81.94012 | 3927 ft | 201 kts | 206° |
| 2026-04-22 15:03 | 24.66643 | -81.94849 | 3607 ft | 200 kts | 209° |
| 2026-04-22 15:03 | 24.65480 | -81.95672 | 3343 ft | 195 kts | 208° |
| 2026-04-22 15:03 | 24.64367 | -81.96459 | 3387 ft | 185 kts | 208° |
| 2026-04-22 15:04 | 24.63231 | -81.96894 | 3323 ft | 166 kts | 172° |
| 2026-04-22 15:04 | 24.62078 | -81.96864 | 3365 ft | 168 kts | 173° |
| 2026-04-22 15:04 | 24.60875 | -81.96849 | 3093 ft | 173 kts | 174° |
| 2026-04-22 15:04 | 24.59677 | -81.96837 | 2763 ft | 173 kts | 173° |
| 2026-04-22 15:05 | 24.58469 | -81.96821 | 2413 ft | 173 kts | 173° |
| 2026-04-22 15:05 | 24.57282 | -81.96807 | 2035 ft | 169 kts | 174° |
| 2026-04-22 15:05 | 24.56183 | -81.96583 | 1680 ft | 150 kts | 142° |
| 2026-04-22 15:05 | 24.55739 | -81.95748 | 1517 ft | 120 kts | 90° |
| 2026-04-22 15:06 | 24.55686 | -81.94816 | 1504 ft | 125 kts | 101° |
| 2026-04-22 15:06 | 24.55574 | -81.93868 | 1495 ft | 125 kts | 95° |
| 2026-04-22 15:06 | 24.55526 | -81.92929 | 1491 ft | 122 kts | 92° |
| 2026-04-22 15:06 | 24.55504 | -81.92005 | 1502 ft | 121 kts | 91° |
| 2026-04-22 15:07 | 24.55495 | -81.91092 | 1501 ft | 117 kts | 91° |
| 2026-04-22 15:07 | 24.55494 | -81.90201 | 1489 ft | 117 kts | 90° |
| 2026-04-22 15:07 | 24.55497 | -81.89239 | 1511 ft | 129 kts | 90° |
| 2026-04-22 15:07 | 24.55503 | -81.88281 | 1499 ft | 123 kts | 89° |
| 2026-04-22 15:08 | 24.55511 | -81.87348 | 1505 ft | 121 kts | 90° |
| 2026-04-22 15:08 | 24.55519 | -81.86444 | 1488 ft | 116 kts | 90° |
| 2026-04-22 15:08 | 24.55527 | -81.85555 | 1504 ft | 117 kts | 90° |
| 2026-04-22 15:08 | 24.55534 | -81.84628 | 1464 ft | 125 kts | 90° |
| 2026-04-22 15:09 | 24.55546 | -81.83685 | 1325 ft | 123 kts | 91° |
| 2026-04-22 15:09 | 24.55554 | -81.82739 | 1158 ft | 129 kts | 92° |
| 2026-04-22 15:09 | 24.55559 | -81.81751 | 979 ft | 127 kts | 91° |
| 2026-04-22 15:09 | 24.55566 | -81.80815 | 719 ft | 119 kts | 89° |
| 2026-04-22 15:10 | 24.55577 | -81.79931 | 605 ft | 114 kts | 88° |
| 2026-04-22 15:10 | 24.55596 | -81.79016 | 459 ft | 125 kts | 90° |
| 2026-04-22 15:10 | 24.55599 | -81.78080 | 310 ft | 119 kts | 92° |
| 2026-04-22 15:10 | 24.55597 | -81.77194 | 108 ft | 118 kts | 88° |
| 2026-04-22 15:11 | 24.55609 | -81.76319 | 7 ft | 106 kts | 89° |
| 2026-04-22 15:11 | 24.55616 | -81.75689 | 10 ft | 39 kts | 90° |
| 2026-04-22 15:11 | 24.55580 | -81.75589 | 10 ft | 12 kts | 175° |
| 2026-04-22 15:11 | 24.55556 | -81.75588 | 9 ft | 1 kts | 178° |
| 2026-04-22 15:12 | 24.55533 | -81.75572 | 9 ft | 6 kts | 117° |
| 2026-04-22 15:12 | 24.55517 | -81.75527 | 8 ft | 7 kts | 158° |
| 2026-04-22 15:12 | 24.55468 | -81.75517 | 8 ft | 7 kts | 174° |
| 2026-04-22 15:12 | 24.55436 | -81.75491 | 8 ft | 7 kts | 93° |
| 2026-04-22 15:13 | 24.55453 | -81.75452 | 8 ft | 7 kts | 356° |
| 2026-04-22 15:13 | 24.55494 | -81.75456 | 8 ft | 3 kts | 306° |
| 2026-04-22 15:13 | 24.55482 | -81.75477 | 9 ft | 4 kts | 221° |
| 2026-04-22 15:13 | 24.55471 | -81.75490 | 8 ft | 0 kts | 228° |